createdAt,value
2023-01-06T00:00:27.363Z,4.80
2023-01-06T00:05:29.815Z,4.80
2023-01-06T00:10:32.105Z,4.90
2023-01-06T00:15:37.709Z,4.90
2023-01-06T00:20:40.042Z,4.90
2023-01-06T00:25:50.495Z,4.90
2023-01-06T00:30:53.051Z,4.90
2023-01-06T00:35:59.404Z,4.80
2023-01-06T00:41:27.117Z,4.90
2023-01-06T00:46:31.689Z,4.80
2023-01-06T00:51:36.230Z,4.80
2023-01-06T00:56:40.399Z,4.70
2023-01-06T01:01:44.407Z,4.70
2023-01-06T01:06:49.159Z,4.80
2023-01-06T01:12:11.575Z,4.70
2023-01-06T01:17:19.596Z,4.70
2023-01-06T01:22:24.113Z,4.70
2023-01-06T01:27:26.380Z,4.70
2023-01-06T01:32:28.673Z,4.40
2023-01-06T01:37:31.176Z,4.30
2023-01-06T01:42:33.420Z,4.20
2023-01-06T01:48:00.986Z,4.20
2023-01-06T01:53:16.781Z,4.10
2023-01-06T01:58:28.599Z,4.00
2023-01-06T02:03:31.266Z,4.00
2023-01-06T02:08:40.763Z,3.80
2023-01-06T02:13:47.443Z,3.70
2023-01-06T02:19:20.124Z,3.60
2023-01-06T02:24:59.018Z,3.40
2023-01-06T02:30:20.999Z,3.30
2023-01-06T02:35:51.087Z,3.10
2023-01-06T02:41:18.321Z,3.00
2023-01-06T02:46:59.919Z,2.80
2023-01-06T02:52:14.467Z,2.70
2023-01-06T02:57:32.428Z,2.80
2023-01-06T03:02:39.428Z,2.80
2023-01-06T03:07:43.845Z,3.00
2023-01-06T03:12:53.812Z,3.00
2023-01-06T03:17:57.036Z,3.20
2023-01-06T03:22:59.956Z,3.50
2023-01-06T03:28:02.272Z,3.40
2023-01-06T03:33:34.132Z,3.50
2023-01-06T03:39:08.500Z,3.60
2023-01-06T03:44:18.184Z,3.60
2023-01-06T03:49:31.037Z,3.60
2023-01-06T03:54:42.528Z,3.60
2023-01-06T03:59:50.641Z,3.70
2023-01-06T04:05:05.445Z,3.70
2023-01-06T04:10:09.164Z,3.70
2023-01-06T04:15:17.973Z,3.60
2023-01-06T04:20:31.302Z,3.90
2023-01-06T04:25:40.831Z,3.80
2023-01-06T04:30:50.783Z,3.90
2023-01-06T04:35:53.421Z,3.80
2023-01-06T04:40:57.792Z,3.90
2023-01-06T04:46:00.199Z,4.00
2023-01-06T04:51:04.385Z,3.90
2023-01-06T04:56:11.623Z,4.00
2023-01-06T05:01:14.468Z,3.90
2023-01-06T05:06:17.308Z,3.90
2023-01-06T05:11:24.679Z,3.90
2023-01-06T05:16:31.872Z,3.90
2023-01-06T05:21:34.165Z,3.90
2023-01-06T05:26:36.896Z,3.90
2023-01-06T05:31:39.213Z,3.80
2023-01-06T05:36:41.498Z,4.00
2023-01-06T05:41:43.751Z,4.00
2023-01-06T05:46:46.117Z,4.00
2023-01-06T05:51:48.396Z,4.00
2023-01-06T05:56:50.645Z,4.00
2023-01-06T06:01:53.164Z,4.00
2023-01-06T06:06:55.442Z,4.00
2023-01-06T06:11:57.668Z,4.10
2023-01-06T06:16:59.924Z,4.00
2023-01-06T06:22:02.141Z,4.10
2023-01-06T06:27:05.000Z,4.10
2023-01-06T06:32:07.329Z,4.10
2023-01-06T06:37:11.227Z,4.20
2023-01-06T06:42:14.801Z,4.10
2023-01-06T06:47:17.057Z,4.20
2023-01-06T06:52:19.377Z,4.20
2023-01-06T06:57:21.708Z,4.30
2023-01-06T07:02:24.006Z,4.20
2023-01-06T07:07:26.307Z,4.30
2023-01-06T07:12:28.568Z,4.30
2023-01-06T07:17:30.950Z,4.30
2023-01-06T07:22:33.329Z,4.30
2023-01-06T07:27:36.136Z,4.30
2023-01-06T07:32:38.538Z,4.30
2023-01-06T07:37:40.816Z,4.30
2023-01-06T07:42:43.217Z,4.40
2023-01-06T07:47:45.625Z,4.50
2023-01-06T07:52:47.859Z,4.50
2023-01-06T07:57:50.153Z,4.50
2023-01-06T08:02:52.923Z,4.60
2023-01-06T08:07:55.244Z,4.50
2023-01-06T08:12:57.499Z,4.70
2023-01-06T08:17:59.814Z,4.70
2023-01-06T08:23:02.432Z,4.50
2023-01-06T08:28:05.493Z,4.80
2023-01-06T08:33:07.942Z,4.80
2023-01-06T08:38:10.198Z,4.80
2023-01-06T08:43:12.486Z,4.90
2023-01-06T08:48:14.852Z,5.00
2023-01-06T08:53:17.109Z,5.10
2023-01-06T08:58:19.357Z,5.10
2023-01-06T09:03:21.779Z,5.20
2023-01-06T09:08:25.142Z,5.30
2023-01-06T09:13:27.444Z,5.10
2023-01-06T09:18:29.696Z,5.20
2023-01-06T09:23:32.812Z,5.10
2023-01-06T09:28:35.697Z,5.10
2023-01-06T09:33:38.118Z,5.10
2023-01-06T09:38:40.427Z,5.10
2023-01-06T09:44:06.341Z,5.00
2023-01-06T09:49:20.947Z,5.10
2023-01-06T09:54:34.876Z,5.10
2023-01-06T09:59:52.268Z,5.10
2023-01-06T10:04:54.509Z,5.10
2023-01-06T10:10:25.190Z,5.10
2023-01-06T10:15:45.625Z,5.10
2023-01-06T10:20:59.695Z,5.10
2023-01-06T10:26:11.900Z,5.10
2023-01-06T10:31:22.492Z,5.00
2023-01-06T10:36:40.875Z,5.10
2023-01-06T10:42:24.383Z,5.00
2023-01-06T10:47:30.668Z,5.10
2023-01-06T10:52:33.836Z,5.10
2023-01-06T10:57:40.340Z,5.00
2023-01-06T11:02:48.536Z,5.10
2023-01-06T11:08:03.423Z,5.10
2023-01-06T11:13:16.755Z,5.10
2023-01-06T11:18:33.140Z,5.10
2023-01-06T11:23:41.323Z,5.10
2023-01-06T11:28:46.351Z,5.10
2023-01-06T11:33:54.741Z,5.00
2023-01-06T11:39:15.651Z,5.00
2023-01-06T11:44:32.656Z,5.00
2023-01-06T11:49:39.694Z,5.00
2023-01-06T11:54:42.696Z,5.10
2023-01-06T11:59:50.978Z,5.10
2023-01-06T12:04:55.907Z,5.10
2023-01-06T12:10:03.931Z,5.20
2023-01-06T12:15:13.671Z,5.40
2023-01-06T12:20:19.247Z,5.50
2023-01-06T12:25:33.488Z,5.60
2023-01-06T12:30:54.390Z,5.50
2023-01-06T12:36:02.477Z,5.40
2023-01-06T12:41:24.579Z,5.40
2023-01-06T12:46:34.843Z,5.40
2023-01-06T12:51:42.010Z,5.30
2023-01-06T12:57:23.269Z,5.30
2023-01-06T13:02:50.574Z,5.20
2023-01-06T13:08:20.976Z,5.20
2023-01-06T13:13:26.346Z,5.20
2023-01-06T13:18:54.959Z,5.10
2023-01-06T13:24:30.717Z,5.10
2023-01-06T13:29:54.643Z,5.10
2023-01-06T13:35:15.768Z,5.10
2023-01-06T13:40:29.545Z,5.10
2023-01-06T13:45:39.187Z,5.00
2023-01-06T13:50:42.442Z,5.00
2023-01-06T13:55:44.881Z,5.00
2023-01-06T14:01:10.744Z,5.00
2023-01-06T14:06:22.053Z,5.00
2023-01-06T14:11:37.703Z,5.00
2023-01-06T14:16:43.099Z,5.10
2023-01-06T14:21:48.273Z,5.00
2023-01-06T14:27:01.266Z,5.00
2023-01-06T14:32:03.722Z,5.10
2023-01-06T14:37:15.819Z,5.00
2023-01-06T14:42:32.690Z,5.00
2023-01-06T14:47:47.217Z,4.90
2023-01-06T14:53:02.732Z,4.90
2023-01-06T14:58:04.983Z,4.90
2023-01-06T15:03:20.954Z,4.80
2023-01-06T15:08:23.378Z,4.90
2023-01-06T15:13:31.093Z,4.90
2023-01-06T15:18:35.833Z,5.00
2023-01-06T15:23:50.910Z,5.00
2023-01-06T15:29:17.611Z,5.00
2023-01-06T15:34:30.059Z,5.00
2023-01-06T15:39:35.186Z,5.00
2023-01-06T15:44:39.454Z,5.00
2023-01-06T15:49:48.590Z,5.10
2023-01-06T15:54:53.141Z,5.10
2023-01-06T16:00:00.454Z,5.10
2023-01-06T16:05:02.884Z,5.10
2023-01-06T16:10:35.823Z,5.20
2023-01-06T16:16:24.851Z,5.20
2023-01-06T16:21:30.270Z,5.20
2023-01-06T16:26:40.721Z,5.30
2023-01-06T16:31:43.035Z,5.20
2023-01-06T16:36:45.320Z,5.30
2023-01-06T16:41:59.786Z,5.30
2023-01-06T16:47:03.157Z,5.30
2023-01-06T16:52:06.250Z,5.40
2023-01-06T16:57:11.404Z,5.40
2023-01-06T17:02:17.047Z,5.50
2023-01-06T17:07:19.548Z,5.50
2023-01-06T17:12:57.046Z,5.60
2023-01-06T17:17:59.294Z,5.70
2023-01-06T17:23:01.617Z,5.70
2023-01-06T17:28:17.558Z,5.80
2023-01-06T17:33:20.025Z,5.90
2023-01-06T17:38:24.645Z,5.90
2023-01-06T17:43:33.724Z,6.10
2023-01-06T17:48:37.117Z,6.10
2023-01-06T17:53:58.042Z,6.20
2023-01-06T17:59:12.168Z,6.30
2023-01-06T18:04:15.696Z,6.50
2023-01-06T18:09:23.462Z,6.60
2023-01-06T18:14:33.502Z,6.60
2023-01-06T18:19:38.970Z,6.60
2023-01-06T18:24:41.685Z,6.70
2023-01-06T18:29:44.788Z,6.70
2023-01-06T18:34:49.198Z,6.80
2023-01-06T18:39:53.482Z,6.80
2023-01-06T18:45:09.454Z,6.80
2023-01-06T18:50:29.620Z,6.90
2023-01-06T18:55:39.040Z,6.90
2023-01-06T19:00:45.864Z,6.90
2023-01-06T19:05:48.195Z,6.90
2023-01-06T19:10:50.550Z,6.90
2023-01-06T19:15:53.986Z,7.00
2023-01-06T19:20:56.219Z,7.10
2023-01-06T19:26:05.498Z,7.10
2023-01-06T19:31:21.081Z,7.10
2023-01-06T19:36:38.436Z,7.20
2023-01-06T19:41:40.766Z,7.20
2023-01-06T19:46:45.320Z,7.30
2023-01-06T19:51:49.936Z,7.30
2023-01-06T19:56:53.584Z,7.30
2023-01-06T20:02:17.994Z,7.30
2023-01-06T20:07:20.507Z,7.30
2023-01-06T20:12:22.764Z,7.40
2023-01-06T20:17:25.808Z,7.40
2023-01-06T20:22:28.066Z,7.40
2023-01-06T20:27:30.404Z,7.50
2023-01-06T20:32:32.747Z,7.50
2023-01-06T20:37:35.376Z,7.40
2023-01-06T20:42:37.672Z,7.40
2023-01-06T20:47:40.326Z,7.60
2023-01-06T20:52:45.863Z,7.40
2023-01-06T20:57:48.190Z,7.40
2023-01-06T21:02:50.495Z,7.30
2023-01-06T21:07:52.773Z,7.30
2023-01-06T21:12:56.328Z,7.40
2023-01-06T21:17:58.573Z,7.40
2023-01-06T21:23:00.843Z,7.40
2023-01-06T21:28:03.339Z,7.50
2023-01-06T21:33:05.552Z,7.50
2023-01-06T21:38:07.818Z,7.60
2023-01-06T21:43:10.182Z,7.50
2023-01-06T21:48:13.171Z,7.50
2023-01-06T21:53:16.235Z,7.40
2023-01-06T21:58:18.537Z,7.40
2023-01-06T22:03:21.277Z,7.30
2023-01-06T22:08:23.676Z,7.20
2023-01-06T22:13:26.376Z,7.10
2023-01-06T22:18:29.639Z,7.10
2023-01-06T22:23:33.316Z,6.90
2023-01-06T22:28:35.537Z,6.90
2023-01-06T22:33:37.782Z,7.00
2023-01-06T22:38:40.034Z,6.80
2023-01-06T22:43:42.367Z,6.70
2023-01-06T22:48:45.706Z,6.50
2023-01-06T22:53:48.449Z,6.30
2023-01-06T22:58:51.044Z,6.30
2023-01-06T23:03:53.274Z,6.20
2023-01-06T23:09:00.648Z,6.10
2023-01-06T23:14:03.305Z,6.00
2023-01-06T23:19:06.823Z,5.90
2023-01-06T23:24:10.497Z,5.80
2023-01-06T23:29:13.449Z,5.80
2023-01-06T23:34:17.813Z,5.90
2023-01-06T23:39:20.239Z,5.80
2023-01-06T23:44:22.484Z,5.80
2023-01-06T23:49:24.750Z,5.70
2023-01-06T23:54:27.365Z,5.50
2023-01-06T23:59:29.605Z,5.30
